createdAt,value
2023-04-07T00:01:03.903Z,73.20
2023-04-07T00:05:06.125Z,73.80
2023-04-07T00:09:08.112Z,74.40
2023-04-07T00:13:10.009Z,77.10
2023-04-07T00:17:11.804Z,79.30
2023-04-07T00:21:13.682Z,81.20
2023-04-07T00:25:15.891Z,83.00
2023-04-07T00:29:17.806Z,84.50
2023-04-07T00:33:19.699Z,86.60
2023-04-07T00:37:21.677Z,87.40
2023-04-07T00:41:23.804Z,87.20
2023-04-07T00:45:25.857Z,86.90
2023-04-07T00:49:31.861Z,89.00
2023-04-07T00:53:33.952Z,89.50
2023-04-07T00:57:36.067Z,90.20
2023-04-07T01:01:53.633Z,90.20
2023-04-07T01:06:01.355Z,90.70
2023-04-07T01:10:06.952Z,91.50
2023-04-07T01:14:19.833Z,91.20
2023-04-07T01:18:32.735Z,91.20
2023-04-07T01:22:43.289Z,91.20
2023-04-07T01:26:47.737Z,91.80
2023-04-07T01:30:50.457Z,91.50
2023-04-07T01:34:53.584Z,92.00
2023-04-07T01:38:56.347Z,92.20
2023-04-07T01:42:59.046Z,92.10
2023-04-07T01:47:02.534Z,92.30
2023-04-07T01:51:06.150Z,92.60
2023-04-07T01:55:09.817Z,92.90
2023-04-07T01:59:17.453Z,92.70
2023-04-07T02:03:28.213Z,92.70
2023-04-07T02:07:39.650Z,93.20
2023-04-07T02:11:43.947Z,93.20
2023-04-07T02:15:47.169Z,93.60
2023-04-07T02:19:54.229Z,93.40
2023-04-07T02:23:57.132Z,93.50
2023-04-07T02:28:01.122Z,93.60
2023-04-07T02:32:03.202Z,94.00
2023-04-07T02:36:05.718Z,94.20
2023-04-07T02:40:08.617Z,94.30
2023-04-07T02:44:10.774Z,94.20
2023-04-07T02:48:12.850Z,94.50
2023-04-07T02:52:15.024Z,94.70
2023-04-07T02:56:17.298Z,94.90
2023-04-07T03:00:19.417Z,95.40
2023-04-07T03:04:40.316Z,95.70
2023-04-07T03:08:42.747Z,96.00
2023-04-07T03:12:44.912Z,96.60
2023-04-07T03:16:47.177Z,96.60
2023-04-07T03:20:50.540Z,96.30
2023-04-07T03:24:53.054Z,96.00
2023-04-07T03:28:58.195Z,96.10
2023-04-07T03:33:00.794Z,96.00
2023-04-07T03:37:03.919Z,95.90
2023-04-07T03:41:08.885Z,96.20
2023-04-07T03:45:11.082Z,96.20
2023-04-07T03:49:17.739Z,96.00
2023-04-07T03:53:20.063Z,96.10
2023-04-07T03:57:22.099Z,96.40
2023-04-07T04:01:25.571Z,96.50
2023-04-07T04:05:28.709Z,96.30
2023-04-07T04:09:31.516Z,96.30
2023-04-07T04:13:34.391Z,96.60
2023-04-07T04:17:39.816Z,97.10
2023-04-07T04:21:43.182Z,97.00
2023-04-07T04:25:45.588Z,97.00
2023-04-07T04:29:49.002Z,97.20
2023-04-07T04:33:54.283Z,97.10
2023-04-07T04:37:59.196Z,97.20
2023-04-07T04:42:03.798Z,97.10
2023-04-07T04:46:10.569Z,97.30
2023-04-07T04:50:16.805Z,97.10
2023-04-07T04:54:21.710Z,96.80
2023-04-07T04:58:23.957Z,96.70
2023-04-07T05:02:30.133Z,96.90
2023-04-07T05:06:32.680Z,96.80
2023-04-07T05:10:41.292Z,96.90
2023-04-07T05:14:48.326Z,97.20
2023-04-07T05:18:50.710Z,97.10
2023-04-07T05:22:53.644Z,97.30
2023-04-07T05:26:59.596Z,97.30
2023-04-07T05:31:01.838Z,97.00
2023-04-07T05:35:07.598Z,97.10
2023-04-07T05:39:12.505Z,97.50
2023-04-07T05:43:15.656Z,97.60
2023-04-07T05:47:17.904Z,97.20
2023-04-07T05:51:20.766Z,97.00
2023-04-07T05:55:23.416Z,96.70
2023-04-07T05:59:26.957Z,96.60
2023-04-07T06:03:29.074Z,96.80
2023-04-07T06:07:43.124Z,96.90
2023-04-07T06:11:47.150Z,96.90
2023-04-07T06:15:50.990Z,97.50
2023-04-07T06:19:53.079Z,98.10
2023-04-07T06:23:55.547Z,98.00
2023-04-07T06:27:57.676Z,97.90
2023-04-07T06:32:00.051Z,97.60
2023-04-07T06:36:02.291Z,97.40
2023-04-07T06:40:04.986Z,97.10
2023-04-07T06:44:09.484Z,97.10
2023-04-07T06:48:11.859Z,97.00
2023-04-07T06:52:14.187Z,97.10
2023-04-07T06:56:16.354Z,97.30
2023-04-07T07:00:19.058Z,97.30
2023-04-07T07:04:21.319Z,97.40
2023-04-07T07:08:24.202Z,97.30
2023-04-07T07:12:26.239Z,97.70
2023-04-07T07:16:28.976Z,98.30
2023-04-07T07:20:31.074Z,98.30
2023-04-07T07:24:34.180Z,97.80
2023-04-07T07:28:36.461Z,98.10
2023-04-07T07:32:38.494Z,97.40
2023-04-07T07:36:40.669Z,97.10
2023-04-07T07:40:44.087Z,97.40
2023-04-07T07:44:46.337Z,97.60
2023-04-07T07:48:48.577Z,97.30
2023-04-07T07:52:50.664Z,97.20
2023-04-07T07:56:53.005Z,96.50
2023-04-07T08:00:55.017Z,96.70
2023-04-07T08:05:00.758Z,97.30
2023-04-07T08:09:03.249Z,97.30
2023-04-07T08:13:05.439Z,97.50
2023-04-07T08:17:07.680Z,97.40
2023-04-07T08:21:09.808Z,97.20
2023-04-07T08:25:12.169Z,96.40
2023-04-07T08:29:14.994Z,97.10
2023-04-07T08:33:17.122Z,96.60
2023-04-07T08:37:19.137Z,97.70
2023-04-07T08:41:29.336Z,97.00
2023-04-07T08:45:32.920Z,96.40
2023-04-07T08:49:39.329Z,96.80
2023-04-07T08:53:50.238Z,96.50
2023-04-07T08:57:53.486Z,96.10
2023-04-07T09:01:56.810Z,97.30
2023-04-07T09:06:02.771Z,97.60
2023-04-07T09:10:05.657Z,97.40
2023-04-07T09:14:08.066Z,97.60
2023-04-07T09:18:10.281Z,96.70
2023-04-07T09:22:14.270Z,96.70
2023-04-07T09:26:22.945Z,96.90
2023-04-07T09:30:25.528Z,96.90
2023-04-07T09:34:33.831Z,96.90
2023-04-07T09:38:37.761Z,96.90
2023-04-07T09:42:46.898Z,96.80
2023-04-07T09:46:57.031Z,96.70
2023-04-07T09:51:07.160Z,96.00
2023-04-07T09:55:09.578Z,96.00
2023-04-07T09:59:12.045Z,96.20
2023-04-07T10:03:15.547Z,96.50
2023-04-07T10:07:17.734Z,96.70
2023-04-07T10:11:20.949Z,97.50
2023-04-07T10:15:23.987Z,96.90
2023-04-07T10:19:27.045Z,96.60
2023-04-07T10:23:34.890Z,97.30
2023-04-07T10:27:52.546Z,97.10
2023-04-07T10:31:54.692Z,96.20
2023-04-07T10:36:05.977Z,95.50
2023-04-07T10:40:21.105Z,95.90
2023-04-07T10:44:42.092Z,96.90
2023-04-07T10:49:10.355Z,95.50
2023-04-07T10:53:14.419Z,95.80
2023-04-07T10:57:17.141Z,95.00
2023-04-07T11:01:19.893Z,94.50
2023-04-07T11:05:23.933Z,93.90
2023-04-07T11:09:26.375Z,93.70
2023-04-07T11:13:28.557Z,94.50
2023-04-07T11:17:30.600Z,94.20
2023-04-07T11:21:32.791Z,93.90
2023-04-07T11:25:35.687Z,94.40
2023-04-07T11:29:38.793Z,94.40
2023-04-07T11:33:41.302Z,95.00
2023-04-07T11:37:43.889Z,94.10
2023-04-07T11:41:47.720Z,93.80
2023-04-07T11:46:16.127Z,94.70
2023-04-07T11:50:39.050Z,94.20
2023-04-07T11:54:50.062Z,93.30
2023-04-07T11:58:53.521Z,93.50
2023-04-07T12:02:56.753Z,94.00
2023-04-07T12:07:10.202Z,94.50
2023-04-07T12:11:12.410Z,93.20
2023-04-07T12:15:15.091Z,93.70
2023-04-07T12:19:17.293Z,93.40
2023-04-07T12:23:19.397Z,94.20
2023-04-07T12:27:32.554Z,92.20
2023-04-07T12:31:42.586Z,93.40
2023-04-07T12:35:44.860Z,93.10
2023-04-07T12:39:47.078Z,93.50
2023-04-07T12:43:49.408Z,93.50
2023-04-07T12:47:52.168Z,93.40
2023-04-07T12:51:54.481Z,93.00
2023-04-07T12:55:57.126Z,93.60
2023-04-07T12:59:59.160Z,92.20
2023-04-07T13:04:02.152Z,92.90
2023-04-07T13:08:05.199Z,92.10
2023-04-07T13:12:07.260Z,91.10
2023-04-07T13:16:09.410Z,90.70
2023-04-07T13:20:11.658Z,90.80
2023-04-07T13:24:13.937Z,88.40
2023-04-07T13:28:18.359Z,88.40
2023-04-07T13:32:20.457Z,90.40
2023-04-07T13:36:23.435Z,89.30
2023-04-07T13:40:25.883Z,88.90
2023-04-07T13:44:28.578Z,89.60
2023-04-07T13:48:30.636Z,87.20
2023-04-07T13:52:35.319Z,87.70
2023-04-07T13:56:38.593Z,89.40
2023-04-07T14:00:40.625Z,89.00
2023-04-07T14:04:42.897Z,86.50
2023-04-07T14:08:45.353Z,86.90
2023-04-07T14:12:48.508Z,89.30
2023-04-07T14:16:53.278Z,87.00
2023-04-07T14:20:55.608Z,87.20
2023-04-07T14:24:58.003Z,88.10
2023-04-07T14:29:00.107Z,89.10
2023-04-07T14:33:04.406Z,89.30
2023-04-07T14:37:07.680Z,89.30
2023-04-07T14:41:10.759Z,88.60
2023-04-07T14:45:13.005Z,88.00
2023-04-07T14:49:15.791Z,88.00
2023-04-07T14:53:17.940Z,88.00
2023-04-07T14:57:19.850Z,88.80
2023-04-07T15:01:21.978Z,88.60
2023-04-07T15:05:26.101Z,88.80
2023-04-07T15:09:28.127Z,88.50
2023-04-07T15:13:30.510Z,88.40
2023-04-07T15:17:42.858Z,87.50
2023-04-07T15:21:46.283Z,89.10
2023-04-07T15:25:51.346Z,90.40
2023-04-07T15:29:53.484Z,90.30
2023-04-07T15:33:55.658Z,90.10
2023-04-07T15:37:57.694Z,89.90
2023-04-07T15:41:59.948Z,90.20
2023-04-07T15:46:02.077Z,91.40
2023-04-07T15:50:04.437Z,91.10
2023-04-07T15:54:06.602Z,90.60
2023-04-07T15:58:08.611Z,90.40
2023-04-07T16:02:13.056Z,90.60
2023-04-07T16:06:16.289Z,90.80
2023-04-07T16:10:19.907Z,90.60
2023-04-07T16:14:22.021Z,90.20
2023-04-07T16:18:24.216Z,90.60
2023-04-07T16:22:27.206Z,90.90
2023-04-07T16:26:29.509Z,90.80
2023-04-07T16:30:31.653Z,90.80
2023-04-07T16:34:33.631Z,91.00
2023-04-07T16:38:35.578Z,90.40
2023-04-07T16:42:37.587Z,90.90
2023-04-07T16:46:39.536Z,89.00
2023-04-07T16:50:45.655Z,87.30
2023-04-07T16:54:47.872Z,88.00
2023-04-07T16:58:50.972Z,87.00
2023-04-07T17:02:52.950Z,87.40
2023-04-07T17:06:55.073Z,86.90
2023-04-07T17:10:57.280Z,89.20
2023-04-07T17:14:59.356Z,91.90
2023-04-07T17:19:01.842Z,92.50
2023-04-07T17:23:03.936Z,92.60
2023-04-07T17:27:06.191Z,92.70
2023-04-07T17:31:08.452Z,92.60
2023-04-07T17:35:10.825Z,93.10
2023-04-07T17:39:12.975Z,92.80
2023-04-07T17:43:15.706Z,92.70
2023-04-07T17:47:17.893Z,93.20
2023-04-07T17:51:19.964Z,93.30
2023-04-07T17:55:22.673Z,93.20
2023-04-07T17:59:24.758Z,93.30
2023-04-07T18:03:27.110Z,93.30
2023-04-07T18:07:29.586Z,93.20
2023-04-07T18:11:32.789Z,93.20
2023-04-07T18:15:35.067Z,92.70
2023-04-07T18:19:37.723Z,92.50
2023-04-07T18:23:39.838Z,92.30
2023-04-07T18:27:41.888Z,92.40
2023-04-07T18:31:44.164Z,92.60
2023-04-07T18:35:46.491Z,92.60
2023-04-07T18:39:48.830Z,92.40
2023-04-07T18:43:51.574Z,92.10
2023-04-07T18:47:53.836Z,92.10
2023-04-07T18:51:56.138Z,92.00
2023-04-07T18:55:58.952Z,91.70
2023-04-07T19:00:01.103Z,91.70
2023-04-07T19:04:03.494Z,91.80
2023-04-07T19:08:06.679Z,92.00
2023-04-07T19:12:09.537Z,92.00
2023-04-07T19:16:11.930Z,92.00
2023-04-07T19:20:14.305Z,91.90
2023-04-07T19:24:16.519Z,92.20
2023-04-07T19:28:18.851Z,92.70
2023-04-07T19:32:21.178Z,92.60
2023-04-07T19:36:23.440Z,92.70
2023-04-07T19:40:26.150Z,92.40
2023-04-07T19:44:28.145Z,92.60
2023-04-07T19:48:30.808Z,93.00
2023-04-07T19:52:33.268Z,92.90
2023-04-07T19:56:35.201Z,93.00
2023-04-07T20:00:38.530Z,93.10
2023-04-07T20:04:40.570Z,92.80
2023-04-07T20:08:44.250Z,93.10
2023-04-07T20:12:46.439Z,93.00
2023-04-07T20:16:48.575Z,93.10
2023-04-07T20:20:58.962Z,93.30
2023-04-07T20:25:04.872Z,94.00
2023-04-07T20:29:08.213Z,94.20
2023-04-07T20:33:10.348Z,94.20
2023-04-07T20:37:12.293Z,94.10
2023-04-07T20:41:16.636Z,93.90
2023-04-07T20:45:19.190Z,93.60
2023-04-07T20:49:21.791Z,93.50
2023-04-07T20:53:23.840Z,94.10
2023-04-07T20:57:26.753Z,93.90
2023-04-07T21:01:28.922Z,93.60
2023-04-07T21:05:31.320Z,93.70
2023-04-07T21:09:33.464Z,93.50
2023-04-07T21:13:35.636Z,93.30
2023-04-07T21:17:37.739Z,93.80
2023-04-07T21:21:39.792Z,93.30
2023-04-07T21:25:41.838Z,93.20
2023-04-07T21:29:43.907Z,93.40
2023-04-07T21:33:46.533Z,93.70
2023-04-07T21:37:48.536Z,93.30
2023-04-07T21:41:50.681Z,93.10
2023-04-07T21:45:52.766Z,93.20
2023-04-07T21:49:54.962Z,94.30
2023-04-07T21:53:57.390Z,93.90
2023-04-07T21:57:59.315Z,93.60
2023-04-07T22:02:01.615Z,93.80
2023-04-07T22:06:04.022Z,93.80
2023-04-07T22:10:06.665Z,95.00
2023-04-07T22:14:08.733Z,94.40
2023-04-07T22:18:12.833Z,94.50
2023-04-07T22:22:15.538Z,94.40
2023-04-07T22:26:17.630Z,94.90
2023-04-07T22:30:20.358Z,95.60
2023-04-07T22:34:22.297Z,96.90
2023-04-07T22:38:24.598Z,98.60
2023-04-07T22:42:26.720Z,99.10
2023-04-07T22:46:28.994Z,98.40
2023-04-07T22:50:31.087Z,97.70
2023-04-07T22:54:33.256Z,98.00
2023-04-07T22:58:35.700Z,97.80
2023-04-07T23:02:38.024Z,97.50
2023-04-07T23:06:43.513Z,98.00
2023-04-07T23:10:45.623Z,97.70
2023-04-07T23:14:47.984Z,97.50
2023-04-07T23:18:50.192Z,97.40
2023-04-07T23:22:52.518Z,98.40
2023-04-07T23:26:54.503Z,98.10
2023-04-07T23:30:57.156Z,97.80
2023-04-07T23:34:59.108Z,98.20
2023-04-07T23:39:02.060Z,98.00
2023-04-07T23:43:04.178Z,98.00
2023-04-07T23:47:06.185Z,98.70
2023-04-07T23:51:08.223Z,98.20
2023-04-07T23:55:10.708Z,98.40
2023-04-07T23:59:14.369Z,98.40
